• Join FlightAware (Why Join?)
  • Login
  • US Flag 
 
06:27AM EST


 

Airport Tracker/Info


-or-


 

Live Flight TrackerFlight Track Log ✈ SKW5631 ✈ 30-Apr-2013 ✈ KSFO - KBUR

Flight Track Log - Related Links

Times and Time Zones

All times are in EDT time to prevent confusion due to time zone crossing. See the SKW5631 flight status page for this flight to view local times or setup timezone preferences in your user account.

Time Position Orientation Groundspeed Altitude Reporting Facility
EDT Latitude Longitude Course Direction KTS MPH feet Rate Location/Type
09:26PM 37.6333 -122.3667 133° Southeast 159 183 1,100  Level Northern Cal TRACON
09:27PM 37.6678 -122.3664 360° North 167 192 1,800 1,920 Climbing Oakland Center
09:28PM 37.6997 -122.4306 302° West 249 287 4,700 2,820 Climbing Oakland Center
09:29PM 37.4178 -122.3201 113° Southeast  Level FlightAware Approximate
09:29PM 37.6219 -122.4661 200° South 293 337 7,600  Level Oakland Center
09:30PM 37.3178 -122.1880 136° Southeast  Level FlightAware Approximate
09:30PM 37.5406 -122.4408 166° South 295 339 10,400  Level Oakland Center
09:31PM 37.2234 -122.0500 135° Southeast  Level FlightAware Approximate
09:31PM 37.4647 -122.3808 148° Southeast 320 368 12,400  Level Oakland Center
09:32PM 37.1564 -121.9641 133° Southeast  Level FlightAware Approximate
09:32PM 37.3939 -122.3036 139° Southeast 336 387 14,400  Level Oakland Center
09:33PM 37.3197 -122.2208 138° Southeast 353 406 16,500 1,860 Climbing Oakland Center
09:34PM 37.2450 -122.1381 139° Southeast 358 412 18,300 1,680 Climbing Oakland Center
09:35PM 37.1667 -122.0539 139° Southeast 369 425 20,000 1,620 Climbing Oakland Center
09:36PM 37.0886 -121.9669 138° Southeast 375 432 21,700 1,320 Climbing Oakland Center
09:37PM 37.0069 -121.8783 139° Southeast 386 444 22,800 1,080 Climbing Oakland Center
09:38PM 36.9042 -121.7708 140° Southeast 402 463 24,000 1,080 Climbing Oakland Center
09:39PM 36.8164 -121.6769 139° Southeast 413 475 25,100 1,080 Climbing Oakland Center
09:40PM 36.7331 -121.5856 139° Southeast 414 476 26,200 1,080 Climbing Oakland Center
09:41PM 36.6453 -121.4925 140° Southeast 413 475 27,400 1,080 Climbing Oakland Center
09:42PM 36.5581 -121.3961 138° Southeast 418 481 28,400 960 Climbing Oakland Center
09:43PM 36.4700 -121.3031 140° Southeast 416 479 29,400 900 Climbing Oakland Center
09:44PM 36.3811 -121.2086 139° Southeast 420 483 30,300 720 Climbing Oakland Center
09:45PM 36.2903 -121.1111 139° Southeast 430 495 30,900 300 Climbing Oakland Center
09:46PM 36.1769 -120.9925 140° Southeast 443 510 31,000  Climbing Oakland Center
09:47PM 36.0792 -120.8875 139° Southeast 460 529 31,000  Level Oakland Center
09:48PM 35.9836 -120.7856 139° Southeast 454 522 31,000  Level Oakland Center
09:49PM 35.8883 -120.6867 140° Southeast 450 518 31,000  Level Oakland Center
09:51PM 35.7925 -120.5861 140° Southeast 451 519 31,000 -60 Level Oakland Center
09:52PM 35.6994 -120.4889 140° Southeast 443 510 30,900  Descending Oakland Center
09:53PM 35.6053 -120.3919 140° Southeast 438 504 31,000 -300 Climbing Oakland Center
09:54PM 35.5125 -120.2958 140° Southeast 431 496 30,300 -1,140 Descending Oakland Center
09:55PM 35.4278 -120.2064 139° Southeast 423 487 28,800 -1,560 Descending Oakland Center
09:56PM 35.3428 -120.1208 141° Southeast 402 463 27,300 -1,620 Descending Los Angeles Center
09:57PM 35.2528 -120.0286 140° Southeast 390 449 25,700 -1,560 Descending Los Angeles Center
09:58PM 35.1714 -119.9464 140° Southeast 381 438 24,200 -1,380 Descending Los Angeles Center
09:59PM 35.0919 -119.8639 140° Southeast 375 432 22,700 -1,380 Descending Los Angeles Center
10:00PM 35.0125 -119.7544 132° Southeast 362 417 21,200 -1,380 Descending Los Angeles Center
10:01PM 34.9458 -119.6661 133° Southeast 356 410 19,900 -1,320 Descending Los Angeles Center
10:02PM 34.8811 -119.5786 132° Southeast 350 403 18,600 -1,320 Descending Los Angeles Center
10:03PM 34.8183 -119.4928 132° Southeast 343 395 17,200 -1,320 Descending Los Angeles Center
10:04PM 34.7561 -119.4075 132° Southeast 339 390 16,000 -1,320 Descending Los Angeles Center
10:05PM 34.6789 -119.3078 133° Southeast 337 388 14,600 -1,200 Descending Los Angeles Center
10:06PM 34.6194 -119.2258 131° Southeast 329 379 13,600 -1,080 Descending Los Angeles Center
10:07PM 34.5564 -119.1481 135° Southeast 325 374 12,400 -1,080 Descending Los Angeles Center
10:08PM 34.4964 -119.0625 130° Southeast 330 380 11,400 -720 Descending Los Angeles Center
10:09PM 34.4350 -118.9831 133° Southeast 322 371 11,000 -540 Descending Los Angeles Center
10:10PM 34.3769 -118.9044 132° Southeast 313 360 10,400 -1,500 Descending Los Angeles Center
10:12PM 34.2678 -118.7261 126° Southeast 293 337 6,400 -1,800 Descending Los Angeles Center
10:13PM 34.2244 -118.6506 125° Southeast 284 327 4,900 -1,200 Descending Los Angeles Center
10:14PM 34.2025 -118.5753 109° East 251 289 4,000 -720 Descending Los Angeles Center
10:15PM 34.2006 -118.5108 92° East 211 243 3,500 -720 Descending Los Angeles Center
10:17PM 34.2001 -118.3614 90° East  Level FlightAware Approximate
10:18PM 34.1978 -118.3733 90° East 134 154 1,200  Level Los Angeles Center
10:24PM 34.2000 -118.3500 90° East  Level FlightAware Approximate